sensor_id;sensor_type;location;lat;lon;timestamp;temperature;humidity
3136;DHT22;1578;47.658;9.922;2023-10-08T00:01:42;10.10;69.80
3136;DHT22;1578;47.658;9.922;2023-10-08T00:04:08;10.10;69.90
3136;DHT22;1578;47.658;9.922;2023-10-08T00:06:36;10.00;71.90
3136;DHT22;1578;47.658;9.922;2023-10-08T00:09:03;9.90;73.50
3136;DHT22;1578;47.658;9.922;2023-10-08T00:11:34;9.90;73.30
3136;DHT22;1578;47.658;9.922;2023-10-08T00:14:00;9.80;74.30
3136;DHT22;1578;47.658;9.922;2023-10-08T00:16:26;9.70;75.00
3136;DHT22;1578;47.658;9.922;2023-10-08T00:18:53;9.70;76.30
3136;DHT22;1578;47.658;9.922;2023-10-08T00:21:24;9.70;79.50
3136;DHT22;1578;47.658;9.922;2023-10-08T00:23:53;9.70;77.80
3136;DHT22;1578;47.658;9.922;2023-10-08T00:26:25;9.60;76.20
3136;DHT22;1578;47.658;9.922;2023-10-08T00:29:04;9.60;78.00
3136;DHT22;1578;47.658;9.922;2023-10-08T00:31:44;9.50;79.30
3136;DHT22;1578;47.658;9.922;2023-10-08T00:34:18;9.50;79.30
3136;DHT22;1578;47.658;9.922;2023-10-08T00:36:46;9.50;79.50
3136;DHT22;1578;47.658;9.922;2023-10-08T00:39:15;9.50;81.60
3136;DHT22;1578;47.658;9.922;2023-10-08T00:41:49;9.50;82.20
3136;DHT22;1578;47.658;9.922;2023-10-08T00:44:16;9.40;80.20
3136;DHT22;1578;47.658;9.922;2023-10-08T00:46:49;9.50;79.30
3136;DHT22;1578;47.658;9.922;2023-10-08T00:49:21;9.40;77.80
3136;DHT22;1578;47.658;9.922;2023-10-08T00:51:51;9.40;77.80
3136;DHT22;1578;47.658;9.922;2023-10-08T00:54:49;9.20;77.70
3136;DHT22;1578;47.658;9.922;2023-10-08T00:57:30;9.20;80.00
3136;DHT22;1578;47.658;9.922;2023-10-08T01:00:00;9.10;80.20
3136;DHT22;1578;47.658;9.922;2023-10-08T01:02:30;9.10;82.40
3136;DHT22;1578;47.658;9.922;2023-10-08T01:05:17;9.20;81.60
3136;DHT22;1578;47.658;9.922;2023-10-08T01:07:52;9.10;80.50
3136;DHT22;1578;47.658;9.922;2023-10-08T01:10:18;9.10;81.90
3136;DHT22;1578;47.658;9.922;2023-10-08T01:12:46;9.10;82.00
3136;DHT22;1578;47.658;9.922;2023-10-08T01:15:27;9.20;80.10
3136;DHT22;1578;47.658;9.922;2023-10-08T01:17:57;9.30;78.20
3136;DHT22;1578;47.658;9.922;2023-10-08T01:20:29;9.30;77.00
3136;DHT22;1578;47.658;9.922;2023-10-08T01:23:10;9.40;76.40
3136;DHT22;1578;47.658;9.922;2023-10-08T01:25:46;9.30;75.80
3136;DHT22;1578;47.658;9.922;2023-10-08T01:28:17;9.20;75.90
3136;DHT22;1578;47.658;9.922;2023-10-08T01:30:53;9.20;76.20
3136;DHT22;1578;47.658;9.922;2023-10-08T01:33:20;9.20;75.40
3136;DHT22;1578;47.658;9.922;2023-10-08T01:35:48;9.10;75.60
3136;DHT22;1578;47.658;9.922;2023-10-08T01:38:16;9.10;75.80
3136;DHT22;1578;47.658;9.922;2023-10-08T01:40:49;9.00;74.50
3136;DHT22;1578;47.658;9.922;2023-10-08T01:43:16;9.00;74.40
3136;DHT22;1578;47.658;9.922;2023-10-08T01:45:43;8.90;74.70
3136;DHT22;1578;47.658;9.922;2023-10-08T01:48:12;8.70;77.00
3136;DHT22;1578;47.658;9.922;2023-10-08T01:50:38;8.50;80.30
3136;DHT22;1578;47.658;9.922;2023-10-08T01:53:04;8.60;82.50
3136;DHT22;1578;47.658;9.922;2023-10-08T01:55:33;8.70;80.80
3136;DHT22;1578;47.658;9.922;2023-10-08T01:58:11;8.80;78.70
3136;DHT22;1578;47.658;9.922;2023-10-08T02:00:45;8.70;79.30
3136;DHT22;1578;47.658;9.922;2023-10-08T02:03:15;8.70;80.70
3136;DHT22;1578;47.658;9.922;2023-10-08T02:05:42;8.80;80.50
3136;DHT22;1578;47.658;9.922;2023-10-08T02:08:09;8.80;80.60
3136;DHT22;1578;47.658;9.922;2023-10-08T02:10:37;8.80;81.40
3136;DHT22;1578;47.658;9.922;2023-10-08T02:13:04;8.80;82.00
3136;DHT22;1578;47.658;9.922;2023-10-08T02:15:30;8.90;81.80
3136;DHT22;1578;47.658;9.922;2023-10-08T02:17:56;8.90;82.10
3136;DHT22;1578;47.658;9.922;2023-10-08T02:20:24;8.90;82.90
3136;DHT22;1578;47.658;9.922;2023-10-08T02:22:49;8.90;83.20
3136;DHT22;1578;47.658;9.922;2023-10-08T02:25:15;9.00;82.50
3136;DHT22;1578;47.658;9.922;2023-10-08T02:27:41;9.00;82.70
3136;DHT22;1578;47.658;9.922;2023-10-08T02:30:07;9.10;81.40
3136;DHT22;1578;47.658;9.922;2023-10-08T02:32:35;9.10;80.90
3136;DHT22;1578;47.658;9.922;2023-10-08T02:35:03;9.00;82.10
3136;DHT22;1578;47.658;9.922;2023-10-08T02:37:28;9.00;82.10
3136;DHT22;1578;47.658;9.922;2023-10-08T02:39:54;8.90;83.30
3136;DHT22;1578;47.658;9.922;2023-10-08T02:42:20;8.90;84.80
3136;DHT22;1578;47.658;9.922;2023-10-08T02:44:47;9.10;83.40
3136;DHT22;1578;47.658;9.922;2023-10-08T02:47:13;9.00;82.30
3136;DHT22;1578;47.658;9.922;2023-10-08T02:49:47;9.00;83.30
3136;DHT22;1578;47.658;9.922;2023-10-08T02:52:18;9.00;83.90
3136;DHT22;1578;47.658;9.922;2023-10-08T02:54:43;9.10;83.40
3136;DHT22;1578;47.658;9.922;2023-10-08T02:57:10;9.20;82.50
3136;DHT22;1578;47.658;9.922;2023-10-08T02:59:40;9.20;81.60
3136;DHT22;1578;47.658;9.922;2023-10-08T03:02:13;9.20;80.80
3136;DHT22;1578;47.658;9.922;2023-10-08T03:04:51;9.20;80.60
3136;DHT22;1578;47.658;9.922;2023-10-08T03:07:18;9.30;79.50
3136;DHT22;1578;47.658;9.922;2023-10-08T03:09:48;9.40;78.70
3136;DHT22;1578;47.658;9.922;2023-10-08T03:12:16;9.30;77.70
3136;DHT22;1578;47.658;9.922;2023-10-08T03:14:43;9.30;77.50
3136;DHT22;1578;47.658;9.922;2023-10-08T03:17:29;9.30;77.70
3136;DHT22;1578;47.658;9.922;2023-10-08T03:19:56;9.30;77.50
3136;DHT22;1578;47.658;9.922;2023-10-08T03:22:47;9.30;76.30
3136;DHT22;1578;47.658;9.922;2023-10-08T03:25:13;9.40;75.70
3136;DHT22;1578;47.658;9.922;2023-10-08T03:27:43;9.40;76.40
3136;DHT22;1578;47.658;9.922;2023-10-08T03:30:09;9.40;76.70
3136;DHT22;1578;47.658;9.922;2023-10-08T03:32:40;9.40;76.60
3136;DHT22;1578;47.658;9.922;2023-10-08T03:35:08;9.40;75.80
3136;DHT22;1578;47.658;9.922;2023-10-08T03:37:38;9.30;77.20
3136;DHT22;1578;47.658;9.922;2023-10-08T03:40:07;9.30;78.30
3136;DHT22;1578;47.658;9.922;2023-10-08T03:42:51;9.30;79.10
3136;DHT22;1578;47.658;9.922;2023-10-08T03:45:17;9.40;78.40
3136;DHT22;1578;47.658;9.922;2023-10-08T03:48:03;9.40;77.40
3136;DHT22;1578;47.658;9.922;2023-10-08T03:50:34;9.40;77.50
3136;DHT22;1578;47.658;9.922;2023-10-08T03:53:10;9.40;76.00
3136;DHT22;1578;47.658;9.922;2023-10-08T03:55:39;9.40;74.80
3136;DHT22;1578;47.658;9.922;2023-10-08T03:58:10;9.40;75.80
3136;DHT22;1578;47.658;9.922;2023-10-08T04:00:53;9.40;75.70
3136;DHT22;1578;47.658;9.922;2023-10-08T04:03:37;9.40;75.40
3136;DHT22;1578;47.658;9.922;2023-10-08T04:06:21;9.50;75.80
3136;DHT22;1578;47.658;9.922;2023-10-08T04:09:05;9.50;75.10
3136;DHT22;1578;47.658;9.922;2023-10-08T04:11:34;9.50;74.80
3136;DHT22;1578;47.658;9.922;2023-10-08T04:14:15;9.40;74.70
3136;DHT22;1578;47.658;9.922;2023-10-08T04:16:45;9.40;75.90
3136;DHT22;1578;47.658;9.922;2023-10-08T04:19:12;9.50;76.10
3136;DHT22;1578;47.658;9.922;2023-10-08T04:21:38;9.50;75.70
3136;DHT22;1578;47.658;9.922;2023-10-08T04:24:08;9.40;75.90
3136;DHT22;1578;47.658;9.922;2023-10-08T04:26:34;9.40;76.70
3136;DHT22;1578;47.658;9.922;2023-10-08T04:29:01;9.30;78.10
3136;DHT22;1578;47.658;9.922;2023-10-08T04:31:32;9.40;77.90
3136;DHT22;1578;47.658;9.922;2023-10-08T04:34:05;9.40;77.50
3136;DHT22;1578;47.658;9.922;2023-10-08T04:36:48;9.40;77.50
3136;DHT22;1578;47.658;9.922;2023-10-08T04:39:20;9.40;77.40
3136;DHT22;1578;47.658;9.922;2023-10-08T04:41:52;9.40;76.70
3136;DHT22;1578;47.658;9.922;2023-10-08T04:44:24;9.40;76.00
3136;DHT22;1578;47.658;9.922;2023-10-08T04:46:51;9.20;74.50
3136;DHT22;1578;47.658;9.922;2023-10-08T04:49:19;9.10;76.20
3136;DHT22;1578;47.658;9.922;2023-10-08T04:52:00;9.10;78.20
3136;DHT22;1578;47.658;9.922;2023-10-08T04:54:27;9.20;78.90
3136;DHT22;1578;47.658;9.922;2023-10-08T04:57:00;9.20;78.70
3136;DHT22;1578;47.658;9.922;2023-10-08T04:59:28;9.20;78.10
3136;DHT22;1578;47.658;9.922;2023-10-08T05:02:00;9.00;77.40
3136;DHT22;1578;47.658;9.922;2023-10-08T05:04:49;8.90;78.80
3136;DHT22;1578;47.658;9.922;2023-10-08T05:07:22;8.90;78.60
3136;DHT22;1578;47.658;9.922;2023-10-08T05:10:07;8.90;78.80
3136;DHT22;1578;47.658;9.922;2023-10-08T05:12:33;8.90;77.90
3136;DHT22;1578;47.658;9.922;2023-10-08T05:14:59;9.00;78.30
3136;DHT22;1578;47.658;9.922;2023-10-08T05:17:45;9.00;77.60
3136;DHT22;1578;47.658;9.922;2023-10-08T05:20:19;8.90;77.50
3136;DHT22;1578;47.658;9.922;2023-10-08T05:23:11;8.90;78.60
3136;DHT22;1578;47.658;9.922;2023-10-08T05:25:58;8.90;78.20
3136;DHT22;1578;47.658;9.922;2023-10-08T05:28:35;8.90;78.20
3136;DHT22;1578;47.658;9.922;2023-10-08T05:31:08;8.80;77.30
3136;DHT22;1578;47.658;9.922;2023-10-08T05:33:57;8.90;77.90
3136;DHT22;1578;47.658;9.922;2023-10-08T05:36:29;8.90;77.60
3136;DHT22;1578;47.658;9.922;2023-10-08T05:39:13;8.90;77.00
3136;DHT22;1578;47.658;9.922;2023-10-08T05:41:58;8.90;76.80
3136;DHT22;1578;47.658;9.922;2023-10-08T05:44:41;8.80;76.30
3136;DHT22;1578;47.658;9.922;2023-10-08T05:47:13;8.90;78.00
3136;DHT22;1578;47.658;9.922;2023-10-08T05:50:04;8.90;78.10
3136;DHT22;1578;47.658;9.922;2023-10-08T05:52:46;8.90;78.80
3136;DHT22;1578;47.658;9.922;2023-10-08T05:55:32;8.90;78.70
3136;DHT22;1578;47.658;9.922;2023-10-08T05:58:12;8.90;78.50
3136;DHT22;1578;47.658;9.922;2023-10-08T06:00:45;8.90;79.70
3136;DHT22;1578;47.658;9.922;2023-10-08T06:03:27;8.80;81.70
3136;DHT22;1578;47.658;9.922;2023-10-08T06:06:04;8.90;83.30
3136;DHT22;1578;47.658;9.922;2023-10-08T06:08:48;9.10;82.80
3136;DHT22;1578;47.658;9.922;2023-10-08T06:11:20;9.20;82.10
3136;DHT22;1578;47.658;9.922;2023-10-08T06:14:05;9.30;81.30
3136;DHT22;1578;47.658;9.922;2023-10-08T06:16:53;9.30;80.50
3136;DHT22;1578;47.658;9.922;2023-10-08T06:19:41;9.30;80.70
3136;DHT22;1578;47.658;9.922;2023-10-08T06:22:08;9.40;81.70
3136;DHT22;1578;47.658;9.922;2023-10-08T06:24:34;9.50;81.40
3136;DHT22;1578;47.658;9.922;2023-10-08T06:27:04;9.60;81.90
3136;DHT22;1578;47.658;9.922;2023-10-08T06:29:31;9.70;81.80
3136;DHT22;1578;47.658;9.922;2023-10-08T06:31:57;9.80;82.10
3136;DHT22;1578;47.658;9.922;2023-10-08T06:34:27;10.00;81.60
3136;DHT22;1578;47.658;9.922;2023-10-08T06:36:55;10.30;80.30
3136;DHT22;1578;47.658;9.922;2023-10-08T06:39:24;10.50;78.50
3136;DHT22;1578;47.658;9.922;2023-10-08T06:42:13;10.60;77.10
3136;DHT22;1578;47.658;9.922;2023-10-08T06:44:40;10.90;76.80
3136;DHT22;1578;47.658;9.922;2023-10-08T06:47:08;11.10;74.30
3136;DHT22;1578;47.658;9.922;2023-10-08T06:49:35;11.30;70.20
3136;DHT22;1578;47.658;9.922;2023-10-08T06:52:01;11.40;70.10
3136;DHT22;1578;47.658;9.922;2023-10-08T06:54:27;11.50;67.00
3136;DHT22;1578;47.658;9.922;2023-10-08T06:56:56;11.60;65.60
3136;DHT22;1578;47.658;9.922;2023-10-08T06:59:22;11.70;67.20
3136;DHT22;1578;47.658;9.922;2023-10-08T07:01:51;11.80;66.40
3136;DHT22;1578;47.658;9.922;2023-10-08T07:04:18;12.00;63.80
3136;DHT22;1578;47.658;9.922;2023-10-08T07:06:45;12.10;61.70
3136;DHT22;1578;47.658;9.922;2023-10-08T07:09:14;12.20;64.10
3136;DHT22;1578;47.658;9.922;2023-10-08T07:11:56;12.20;60.10
3136;DHT22;1578;47.658;9.922;2023-10-08T07:14:26;12.30;60.40
3136;DHT22;1578;47.658;9.922;2023-10-08T07:16:56;12.30;62.50
3136;DHT22;1578;47.658;9.922;2023-10-08T07:19:25;12.50;62.70
3136;DHT22;1578;47.658;9.922;2023-10-08T07:22:05;12.60;60.20
3136;DHT22;1578;47.658;9.922;2023-10-08T07:24:54;12.70;64.40
3136;DHT22;1578;47.658;9.922;2023-10-08T07:27:20;12.90;63.80
3136;DHT22;1578;47.658;9.922;2023-10-08T07:29:55;13.20;60.30
3136;DHT22;1578;47.658;9.922;2023-10-08T07:32:21;13.50;58.30
3136;DHT22;1578;47.658;9.922;2023-10-08T07:34:47;13.60;59.10
3136;DHT22;1578;47.658;9.922;2023-10-08T07:37:13;13.80;57.50
3136;DHT22;1578;47.658;9.922;2023-10-08T07:39:41;13.90;59.30
3136;DHT22;1578;47.658;9.922;2023-10-08T07:42:12;14.10;57.10
3136;DHT22;1578;47.658;9.922;2023-10-08T07:44:38;14.40;57.70
3136;DHT22;1578;47.658;9.922;2023-10-08T07:47:05;14.70;53.80
3136;DHT22;1578;47.658;9.922;2023-10-08T07:49:39;14.90;51.60
3136;DHT22;1578;47.658;9.922;2023-10-08T07:52:05;15.10;55.60
3136;DHT22;1578;47.658;9.922;2023-10-08T07:54:31;15.40;51.10
3136;DHT22;1578;47.658;9.922;2023-10-08T07:57:01;15.60;45.10
3136;DHT22;1578;47.658;9.922;2023-10-08T07:59:38;15.90;43.10
3136;DHT22;1578;47.658;9.922;2023-10-08T08:02:07;16.10;46.40
3136;DHT22;1578;47.658;9.922;2023-10-08T08:04:39;16.10;45.60
3136;DHT22;1578;47.658;9.922;2023-10-08T08:07:16;16.50;35.20
3136;DHT22;1578;47.658;9.922;2023-10-08T08:09:46;16.80;37.20
3136;DHT22;1578;47.658;9.922;2023-10-08T08:12:24;17.20;33.60
3136;DHT22;1578;47.658;9.922;2023-10-08T08:14:54;17.30;35.20
3136;DHT22;1578;47.658;9.922;2023-10-08T08:17:20;17.50;27.20
3136;DHT22;1578;47.658;9.922;2023-10-08T08:19:50;17.30;31.00
3136;DHT22;1578;47.658;9.922;2023-10-08T08:22:18;17.00;32.10
3136;DHT22;1578;47.658;9.922;2023-10-08T08:24:55;17.00;33.50
3136;DHT22;1578;47.658;9.922;2023-10-08T08:27:41;16.80;31.90
3136;DHT22;1578;47.658;9.922;2023-10-08T08:30:09;16.80;36.50
3136;DHT22;1578;47.658;9.922;2023-10-08T08:32:38;16.90;28.50
3136;DHT22;1578;47.658;9.922;2023-10-08T08:35:11;16.80;28.00
3136;DHT22;1578;47.658;9.922;2023-10-08T08:37:37;16.80;26.70
3136;DHT22;1578;47.658;9.922;2023-10-08T08:40:07;16.90;32.50
3136;DHT22;1578;47.658;9.922;2023-10-08T08:42:53;17.10;29.00
3136;DHT22;1578;47.658;9.922;2023-10-08T08:45:24;17.30;32.00
3136;DHT22;1578;47.658;9.922;2023-10-08T08:47:50;17.30;26.00
3136;DHT22;1578;47.658;9.922;2023-10-08T08:50:17;17.40;29.20
3136;DHT22;1578;47.658;9.922;2023-10-08T08:52:45;17.60;31.40
3136;DHT22;1578;47.658;9.922;2023-10-08T08:55:11;17.70;28.50
3136;DHT22;1578;47.658;9.922;2023-10-08T08:57:59;18.00;31.20
3136;DHT22;1578;47.658;9.922;2023-10-08T09:00:28;18.30;29.10
3136;DHT22;1578;47.658;9.922;2023-10-08T09:02:55;18.50;27.70
3136;DHT22;1578;47.658;9.922;2023-10-08T09:05:21;18.80;28.40
3136;DHT22;1578;47.658;9.922;2023-10-08T09:08:00;19.10;27.10
3136;DHT22;1578;47.658;9.922;2023-10-08T09:10:29;19.20;21.40
3136;DHT22;1578;47.658;9.922;2023-10-08T09:12:59;19.00;22.40
3136;DHT22;1578;47.658;9.922;2023-10-08T09:15:28;19.00;27.70
3136;DHT22;1578;47.658;9.922;2023-10-08T09:17:55;18.90;23.30
3136;DHT22;1578;47.658;9.922;2023-10-08T09:20:21;19.00;27.70
3136;DHT22;1578;47.658;9.922;2023-10-08T09:23:08;19.10;27.50
3136;DHT22;1578;47.658;9.922;2023-10-08T09:25:43;19.40;27.60
3136;DHT22;1578;47.658;9.922;2023-10-08T09:28:09;19.60;23.10
3136;DHT22;1578;47.658;9.922;2023-10-08T09:30:39;19.70;22.90
3136;DHT22;1578;47.658;9.922;2023-10-08T09:33:09;19.80;19.80
3136;DHT22;1578;47.658;9.922;2023-10-08T09:35:36;19.60;23.00
3136;DHT22;1578;47.658;9.922;2023-10-08T09:38:06;19.80;23.40
3136;DHT22;1578;47.658;9.922;2023-10-08T09:40:40;20.00;23.10
3136;DHT22;1578;47.658;9.922;2023-10-08T09:43:13;20.10;21.10
3136;DHT22;1578;47.658;9.922;2023-10-08T09:45:46;20.00;20.70
3136;DHT22;1578;47.658;9.922;2023-10-08T09:48:16;20.10;20.70
3136;DHT22;1578;47.658;9.922;2023-10-08T09:50:42;20.10;18.20
3136;DHT22;1578;47.658;9.922;2023-10-08T09:53:12;20.10;18.90
3136;DHT22;1578;47.658;9.922;2023-10-08T09:55:52;20.20;15.00
3136;DHT22;1578;47.658;9.922;2023-10-08T09:58:20;20.10;16.70
3136;DHT22;1578;47.658;9.922;2023-10-08T10:00:48;20.10;18.00
3136;DHT22;1578;47.658;9.922;2023-10-08T10:03:15;20.20;18.30
3136;DHT22;1578;47.658;9.922;2023-10-08T10:05:44;20.20;16.80
3136;DHT22;1578;47.658;9.922;2023-10-08T10:08:10;20.20;17.80
3136;DHT22;1578;47.658;9.922;2023-10-08T10:10:37;20.30;17.20
3136;DHT22;1578;47.658;9.922;2023-10-08T10:13:05;20.30;17.00
3136;DHT22;1578;47.658;9.922;2023-10-08T10:15:34;20.30;15.10
3136;DHT22;1578;47.658;9.922;2023-10-08T10:18:17;20.00;17.50
3136;DHT22;1578;47.658;9.922;2023-10-08T10:20:58;19.80;15.80
3136;DHT22;1578;47.658;9.922;2023-10-08T10:23:35;19.90;19.60
3136;DHT22;1578;47.658;9.922;2023-10-08T10:26:29;20.00;22.90
3136;DHT22;1578;47.658;9.922;2023-10-08T10:29:25;20.10;23.20
3136;DHT22;1578;47.658;9.922;2023-10-08T10:31:53;20.30;21.50
3136;DHT22;1578;47.658;9.922;2023-10-08T10:34:21;20.60;22.00
3136;DHT22;1578;47.658;9.922;2023-10-08T10:36:49;20.80;15.40
3136;DHT22;1578;47.658;9.922;2023-10-08T10:39:17;20.50;19.10
3136;DHT22;1578;47.658;9.922;2023-10-08T10:41:56;20.30;20.40
3136;DHT22;1578;47.658;9.922;2023-10-08T10:44:47;20.00;17.50
3136;DHT22;1578;47.658;9.922;2023-10-08T10:55:09;19.70;22.60
3136;DHT22;1578;47.658;9.922;2023-10-08T10:58:26;19.60;21.40
3136;DHT22;1578;47.658;9.922;2023-10-08T11:00:54;19.70;25.30
3136;DHT22;1578;47.658;9.922;2023-10-08T11:03:33;19.90;24.00
3136;DHT22;1578;47.658;9.922;2023-10-08T11:06:00;20.20;24.20
3136;DHT22;1578;47.658;9.922;2023-10-08T11:08:32;20.50;23.40
3136;DHT22;1578;47.658;9.922;2023-10-08T11:11:02;20.90;21.40
3136;DHT22;1578;47.658;9.922;2023-10-08T11:13:34;21.20;21.70
3136;DHT22;1578;47.658;9.922;2023-10-08T11:16:06;21.60;19.20
3136;DHT22;1578;47.658;9.922;2023-10-08T11:18:32;21.80;19.90
3136;DHT22;1578;47.658;9.922;2023-10-08T11:21:09;22.10;20.20
3136;DHT22;1578;47.658;9.922;2023-10-08T11:23:51;22.20;17.10
3136;DHT22;1578;47.658;9.922;2023-10-08T11:26:25;21.80;17.80
3136;DHT22;1578;47.658;9.922;2023-10-08T11:29:01;21.60;19.00
3136;DHT22;1578;47.658;9.922;2023-10-08T11:31:29;21.40;18.90
3136;DHT22;1578;47.658;9.922;2023-10-08T11:34:03;21.40;19.20
3136;DHT22;1578;47.658;9.922;2023-10-08T11:36:36;21.60;19.00
3136;DHT22;1578;47.658;9.922;2023-10-08T11:39:14;21.80;17.90
3136;DHT22;1578;47.658;9.922;2023-10-08T11:41:57;21.90;16.20
3136;DHT22;1578;47.658;9.922;2023-10-08T11:44:23;22.00;14.70
3136;DHT22;1578;47.658;9.922;2023-10-08T11:46:49;21.90;14.40
3136;DHT22;1578;47.658;9.922;2023-10-08T11:49:19;21.70;15.30
3136;DHT22;1578;47.658;9.922;2023-10-08T11:51:47;21.40;12.30
3136;DHT22;1578;47.658;9.922;2023-10-08T11:54:13;21.40;12.00
3136;DHT22;1578;47.658;9.922;2023-10-08T11:56:40;21.60;12.90
3136;DHT22;1578;47.658;9.922;2023-10-08T11:59:06;21.80;10.70
3136;DHT22;1578;47.658;9.922;2023-10-08T12:01:35;21.70;12.70
3136;DHT22;1578;47.658;9.922;2023-10-08T12:04:03;21.60;12.20
3136;DHT22;1578;47.658;9.922;2023-10-08T12:06:28;21.40;14.70
3136;DHT22;1578;47.658;9.922;2023-10-08T12:08:58;21.40;18.10
3136;DHT22;1578;47.658;9.922;2023-10-08T12:11:26;21.30;21.20
3136;DHT22;1578;47.658;9.922;2023-10-08T12:13:59;21.30;21.60
3136;DHT22;1578;47.658;9.922;2023-10-08T12:16:25;21.00;24.10
3136;DHT22;1578;47.658;9.922;2023-10-08T12:18:55;21.00;24.00
3136;DHT22;1578;47.658;9.922;2023-10-08T12:21:28;20.80;26.10
3136;DHT22;1578;47.658;9.922;2023-10-08T12:23:58;21.00;27.00
3136;DHT22;1578;47.658;9.922;2023-10-08T12:26:24;21.10;25.80
3136;DHT22;1578;47.658;9.922;2023-10-08T12:28:50;21.20;26.70
3136;DHT22;1578;47.658;9.922;2023-10-08T12:31:19;21.20;25.50
3136;DHT22;1578;47.658;9.922;2023-10-08T12:33:52;21.20;26.70
3136;DHT22;1578;47.658;9.922;2023-10-08T12:36:28;21.30;24.60
3136;DHT22;1578;47.658;9.922;2023-10-08T12:38:58;21.40;24.10
3136;DHT22;1578;47.658;9.922;2023-10-08T12:41:27;21.40;25.90
3136;DHT22;1578;47.658;9.922;2023-10-08T12:43:54;21.20;25.80
3136;DHT22;1578;47.658;9.922;2023-10-08T12:46:21;21.20;26.90
3136;DHT22;1578;47.658;9.922;2023-10-08T12:48:52;21.30;28.00
3136;DHT22;1578;47.658;9.922;2023-10-08T12:51:23;21.30;27.20
3136;DHT22;1578;47.658;9.922;2023-10-08T12:53:50;21.50;26.10
3136;DHT22;1578;47.658;9.922;2023-10-08T12:56:23;21.70;26.00
3136;DHT22;1578;47.658;9.922;2023-10-08T12:58:58;21.90;25.20
3136;DHT22;1578;47.658;9.922;2023-10-08T13:01:24;22.00;26.20
3136;DHT22;1578;47.658;9.922;2023-10-08T13:03:55;22.00;25.10
3136;DHT22;1578;47.658;9.922;2023-10-08T13:06:27;22.10;24.50
3136;DHT22;1578;47.658;9.922;2023-10-08T13:08:57;22.20;24.60
3136;DHT22;1578;47.658;9.922;2023-10-08T13:11:24;22.30;24.70
3136;DHT22;1578;47.658;9.922;2023-10-08T13:13:56;22.50;22.50
3136;DHT22;1578;47.658;9.922;2023-10-08T13:16:25;22.20;23.20
3136;DHT22;1578;47.658;9.922;2023-10-08T13:18:52;21.90;23.70
3136;DHT22;1578;47.658;9.922;2023-10-08T13:21:18;21.80;27.10
3136;DHT22;1578;47.658;9.922;2023-10-08T13:23:57;21.80;25.80
3136;DHT22;1578;47.658;9.922;2023-10-08T13:26:23;21.80;27.60
3136;DHT22;1578;47.658;9.922;2023-10-08T13:28:50;21.90;28.40
3136;DHT22;1578;47.658;9.922;2023-10-08T13:31:16;22.00;28.00
3136;DHT22;1578;47.658;9.922;2023-10-08T13:33:43;22.30;27.80
3136;DHT22;1578;47.658;9.922;2023-10-08T13:36:14;22.50;25.60
3136;DHT22;1578;47.658;9.922;2023-10-08T13:38:40;22.70;25.00
3136;DHT22;1578;47.658;9.922;2023-10-08T13:41:07;22.70;24.40
3136;DHT22;1578;47.658;9.922;2023-10-08T13:43:50;22.80;24.70
3136;DHT22;1578;47.658;9.922;2023-10-08T13:46:20;22.90;24.10
3136;DHT22;1578;47.658;9.922;2023-10-08T13:48:50;22.80;24.70
3136;DHT22;1578;47.658;9.922;2023-10-08T13:51:19;22.70;23.90
3136;DHT22;1578;47.658;9.922;2023-10-08T13:53:55;22.70;24.40
3136;DHT22;1578;47.658;9.922;2023-10-08T13:56:29;22.70;24.40
3136;DHT22;1578;47.658;9.922;2023-10-08T13:58:59;22.50;25.90
3136;DHT22;1578;47.658;9.922;2023-10-08T14:01:42;22.50;26.70
3136;DHT22;1578;47.658;9.922;2023-10-08T14:04:12;22.50;26.50
3136;DHT22;1578;47.658;9.922;2023-10-08T14:06:42;22.50;26.20
3136;DHT22;1578;47.658;9.922;2023-10-08T14:09:13;22.40;27.70
3136;DHT22;1578;47.658;9.922;2023-10-08T14:11:46;22.20;29.60
3136;DHT22;1578;47.658;9.922;2023-10-08T14:14:12;22.20;29.90
3136;DHT22;1578;47.658;9.922;2023-10-08T14:16:41;22.30;29.70
3136;DHT22;1578;47.658;9.922;2023-10-08T14:19:13;22.30;29.40
3136;DHT22;1578;47.658;9.922;2023-10-08T14:21:41;22.20;30.00
3136;DHT22;1578;47.658;9.922;2023-10-08T14:24:18;22.00;32.10
3136;DHT22;1578;47.658;9.922;2023-10-08T14:26:43;21.90;31.40
3136;DHT22;1578;47.658;9.922;2023-10-08T14:29:09;22.00;33.00
3136;DHT22;1578;47.658;9.922;2023-10-08T14:31:41;22.00;30.00
3136;DHT22;1578;47.658;9.922;2023-10-08T14:34:10;21.90;30.80
3136;DHT22;1578;47.658;9.922;2023-10-08T14:36:42;21.70;34.60
3136;DHT22;1578;47.658;9.922;2023-10-08T14:39:26;21.80;36.20
3136;DHT22;1578;47.658;9.922;2023-10-08T14:42:10;21.90;32.90
3136;DHT22;1578;47.658;9.922;2023-10-08T14:44:54;21.90;32.40
3136;DHT22;1578;47.658;9.922;2023-10-08T14:47:20;21.80;31.70
3136;DHT22;1578;47.658;9.922;2023-10-08T14:49:46;21.80;34.40
3136;DHT22;1578;47.658;9.922;2023-10-08T14:52:12;21.80;32.80
3136;DHT22;1578;47.658;9.922;2023-10-08T14:54:37;21.80;34.40
3136;DHT22;1578;47.658;9.922;2023-10-08T14:57:04;21.60;33.20
3136;DHT22;1578;47.658;9.922;2023-10-08T14:59:31;21.70;37.50
3136;DHT22;1578;47.658;9.922;2023-10-08T15:01:57;21.70;38.40
3136;DHT22;1578;47.658;9.922;2023-10-08T15:04:24;21.80;36.00
3136;DHT22;1578;47.658;9.922;2023-10-08T15:06:51;21.80;33.80
3136;DHT22;1578;47.658;9.922;2023-10-08T15:09:17;21.80;34.30
3136;DHT22;1578;47.658;9.922;2023-10-08T15:11:52;22.00;33.00
3136;DHT22;1578;47.658;9.922;2023-10-08T15:14:21;21.90;32.90
3136;DHT22;1578;47.658;9.922;2023-10-08T15:16:50;21.90;32.90
3136;DHT22;1578;47.658;9.922;2023-10-08T15:19:20;21.90;33.50
3136;DHT22;1578;47.658;9.922;2023-10-08T15:21:47;21.80;34.60
3136;DHT22;1578;47.658;9.922;2023-10-08T15:24:17;21.80;36.20
3136;DHT22;1578;47.658;9.922;2023-10-08T15:26:43;21.70;37.10
3136;DHT22;1578;47.658;9.922;2023-10-08T15:29:09;21.60;37.70
3136;DHT22;1578;47.658;9.922;2023-10-08T15:31:35;21.60;37.70
3136;DHT22;1578;47.658;9.922;2023-10-08T15:34:01;21.40;39.00
3136;DHT22;1578;47.658;9.922;2023-10-08T15:36:30;21.30;39.60
3136;DHT22;1578;47.658;9.922;2023-10-08T15:38:56;21.10;42.50
3136;DHT22;1578;47.658;9.922;2023-10-08T15:41:21;21.00;43.00
3136;DHT22;1578;47.658;9.922;2023-10-08T15:43:52;20.90;44.40
3136;DHT22;1578;47.658;9.922;2023-10-08T15:46:19;20.90;44.70
3136;DHT22;1578;47.658;9.922;2023-10-08T15:48:45;20.80;46.20
3136;DHT22;1578;47.658;9.922;2023-10-08T15:51:11;20.60;48.00
3136;DHT22;1578;47.658;9.922;2023-10-08T15:53:37;20.60;48.90
3136;DHT22;1578;47.658;9.922;2023-10-08T15:56:04;20.50;50.40
3136;DHT22;1578;47.658;9.922;2023-10-08T15:58:30;20.40;50.60
3136;DHT22;1578;47.658;9.922;2023-10-08T16:00:55;20.40;50.40
3136;DHT22;1578;47.658;9.922;2023-10-08T16:03:21;20.30;49.70
3136;DHT22;1578;47.658;9.922;2023-10-08T16:05:47;20.20;51.80
3136;DHT22;1578;47.658;9.922;2023-10-08T16:08:14;20.20;52.00
3136;DHT22;1578;47.658;9.922;2023-10-08T16:10:40;20.00;52.30
3136;DHT22;1578;47.658;9.922;2023-10-08T16:13:05;19.90;53.60
3136;DHT22;1578;47.658;9.922;2023-10-08T16:15:32;19.70;53.60
3136;DHT22;1578;47.658;9.922;2023-10-08T16:17:57;19.50;55.80
3136;DHT22;1578;47.658;9.922;2023-10-08T16:20:23;19.30;59.00
3136;DHT22;1578;47.658;9.922;2023-10-08T16:22:51;19.30;59.20
3136;DHT22;1578;47.658;9.922;2023-10-08T16:25:18;19.20;58.60
3136;DHT22;1578;47.658;9.922;2023-10-08T16:27:48;19.20;58.00
3136;DHT22;1578;47.658;9.922;2023-10-08T16:30:19;19.10;58.50
3136;DHT22;1578;47.658;9.922;2023-10-08T16:33:06;19.10;57.10
3136;DHT22;1578;47.658;9.922;2023-10-08T16:35:32;19.00;56.80
3136;DHT22;1578;47.658;9.922;2023-10-08T16:37:58;19.00;56.80
3136;DHT22;1578;47.658;9.922;2023-10-08T16:40:24;18.80;57.60
3136;DHT22;1578;47.658;9.922;2023-10-08T16:42:50;18.70;57.30